Time;durP1;ratioP1;P1;durP2;ratioP2;P2;SDS_P1;SDS_P2;PMS_P1;PMS_P2;Temp;Humidity;BMP_temperature;BMP_pressure;BME280_temperature;BME280_humidity;BME280_pressure;Samples;Min_cycle;Max_cycle;Signal;HPM_P1;HPM_P2
2021/04/11 00:01:39;;;;;;;20.80;10.68;;;;;;;7.13;47.80;95285.84;2987443;39;20048;-82
2021/04/11 00:03:40;;;;;;;18.45;10.45;;;;;;;7.05;48.30;95290.81;2993743;39;20055;-84
2021/04/11 00:05:43;;;;;;;21.48;10.75;;;;;;;7.03;48.13;95284.91;2994379;39;20076;-84
2021/04/11 00:07:44;;;;;;;19.70;10.90;;;;;;;7.01;48.33;95294.63;2985825;39;20055;-85
2021/04/11 00:09:45;;;;;;;19.85;10.57;;;;;;;7.00;48.30;95291.19;2996318;39;20357;-84
2021/04/11 00:11:47;;;;;;;17.88;9.98;;;;;;;7.04;47.30;95289.19;2984979;39;20059;-85
2021/04/11 00:13:51;;;;;;;16.25;9.65;;;;;;;7.04;46.83;95290.00;2987852;39;20028;-84
2021/04/11 00:15:52;;;;;;;17.63;8.90;;;;;;;7.01;47.40;95292.00;3002129;39;20043;-85
2021/04/11 00:17:53;;;;;;;17.27;9.43;;;;;;;6.97;47.32;95281.03;2996504;39;20051;-85
2021/04/11 00:19:55;;;;;;;16.63;10.30;;;;;;;6.90;47.22;95290.28;2995882;39;20063;-85
2021/04/11 00:21:56;;;;;;;15.60;9.82;;;;;;;6.78;47.31;95289.47;2992684;39;20091;-84
2021/04/11 00:23:57;;;;;;;19.75;10.57;;;;;;;6.66;48.29;95298.25;2986182;39;20036;-84
2021/04/11 00:25:59;;;;;;;18.42;9.45;;;;;;;6.56;48.06;95298.97;2992458;39;20062;-83
2021/04/11 00:28:01;;;;;;;20.52;9.98;;;;;;;6.39;48.47;95291.66;2986598;39;20055;-82
2021/04/11 00:30:06;;;;;;;18.45;9.07;;;;;;;6.42;49.07;95298.38;2999847;39;20130;-82
2021/04/11 00:32:08;;;;;;;15.05;8.90;;;;;;;6.46;48.33;95295.44;2995577;39;20062;-84
2021/04/11 00:34:09;;;;;;;19.65;9.90;;;;;;;6.55;48.67;95294.69;2986350;39;20430;-84
2021/04/11 00:36:16;;;;;;;20.25;9.45;;;;;;;6.62;48.51;95296.84;2995620;39;20058;-83
2021/04/11 00:38:17;;;;;;;16.92;8.68;;;;;;;6.65;48.33;95296.59;2984628;39;20071;-84
2021/04/11 00:40:22;;;;;;;16.08;8.95;;;;;;;6.69;47.76;95298.00;2995691;39;20078;-83
2021/04/11 00:42:29;;;;;;;16.05;8.10;;;;;;;6.73;47.89;95300.25;2986384;39;20077;-83
2021/04/11 00:44:32;;;;;;;19.55;8.48;;;;;;;6.73;47.76;95294.19;2992279;39;20301;-83
2021/04/11 00:46:47;;;;;;;18.50;9.20;;;;;;;6.75;48.12;95294.91;2987206;39;20059;-84
2021/04/11 00:48:49;;;;;;;17.30;9.02;;;;;;;6.82;47.96;95296.09;2972664;39;20075;-84
2021/04/11 00:50:52;;;;;;;13.38;8.13;;;;;;;6.80;47.38;95300.59;2985724;39;20401;-86
2021/04/11 00:52:53;;;;;;;16.75;8.32;;;;;;;6.75;47.66;95287.94;2985422;39;20047;-85
2021/04/11 00:54:54;;;;;;;19.88;8.93;;;;;;;6.76;47.34;95304.41;2986141;39;20047;-82
2021/04/11 00:56:56;;;;;;;17.65;8.90;;;;;;;6.76;47.80;95309.59;2986922;39;20312;-83
2021/04/11 00:58:57;;;;;;;20.83;9.38;;;;;;;6.75;47.44;95303.56;2985932;39;20096;-84
2021/04/11 01:00:59;;;;;;;16.38;8.38;;;;;;;6.73;47.54;95304.63;2986659;39;20087;-84
2021/04/11 01:03:00;;;;;;;16.63;8.45;;;;;;;6.69;47.78;95298.84;2985174;39;20040;-83
2021/04/11 01:05:10;;;;;;;17.85;9.27;;;;;;;6.65;47.74;95305.25;2981032;39;20258;-85
2021/04/11 01:07:13;;;;;;;15.48;8.30;;;;;;;6.62;48.27;95299.44;2986603;39;20040;-83
2021/04/11 01:09:33;;;;;;;15.10;8.57;;;;;;;6.65;47.95;95297.44;2983951;39;20059;-84
2021/04/11 01:11:34;;;;;;;17.67;8.70;;;;;;;6.64;48.27;95300.13;2988564;39;20051;-83
2021/04/11 01:13:40;;;;;;;14.98;8.60;;;;;;;6.63;48.02;95298.50;2988142;39;20051;-83
2021/04/11 01:15:41;;;;;;;15.52;8.88;;;;;;;6.54;47.91;95300.88;2985994;39;20131;-85
2021/04/11 01:17:42;;;;;;;17.15;8.80;;;;;;;6.53;48.54;95298.38;2989447;39;20028;-84
2021/04/11 01:19:44;;;;;;;17.20;9.18;;;;;;;6.55;47.96;95292.09;2986137;39;20032;-82
2021/04/11 01:22:15;;;;;;;13.30;8.07;;;;;;;6.54;48.48;95295.66;2985574;39;20044;-82
2021/04/11 01:24:18;;;;;;;14.20;8.50;;;;;;;6.49;48.37;95304.75;2985877;39;20096;-82
2021/04/11 01:26:20;;;;;;;19.83;9.32;;;;;;;6.38;48.21;95299.56;2992538;39;20080;-84
2021/04/11 01:28:24;;;;;;;15.38;8.85;;;;;;;6.30;48.80;95293.19;2986223;39;20092;-83
2021/04/11 01:30:35;;;;;;;18.35;9.18;;;;;;;6.26;49.58;95286.56;2988381;39;20047;-84
2021/04/11 01:32:36;;;;;;;17.75;9.90;;;;;;;6.25;48.82;95299.69;2992465;39;20080;-82
2021/04/11 01:34:39;;;;;;;16.98;9.68;;;;;;;6.25;48.78;95304.88;2984846;39;20112;-84
2021/04/11 01:36:44;;;;;;;17.33;10.70;;;;;;;6.27;49.21;95300.41;2986057;39;20149;-83
2021/04/11 01:38:46;;;;;;;21.05;11.00;;;;;;;6.33;49.13;95310.34;2985428;39;20062;-83
2021/04/11 01:41:17;;;;;;;18.45;10.05;;;;;;;6.32;49.08;95308.66;2982316;39;20059;-83
2021/04/11 01:43:20;;;;;;;16.30;9.38;;;;;;;6.33;49.00;95315.53;2983674;39;20079;-84
2021/04/11 01:45:21;;;;;;;16.88;9.50;;;;;;;6.32;48.77;95317.31;2986226;39;20120;-84
2021/04/11 01:47:23;;;;;;;15.63;9.10;;;;;;;6.34;48.27;95314.59;2986042;39;20048;-85
2021/04/11 01:49:25;;;;;;;15.38;8.70;;;;;;;6.35;48.50;95309.28;2977854;40;20365;-83
2021/04/11 01:51:37;;;;;;;16.92;9.27;;;;;;;6.38;48.41;95317.78;2977584;40;20040;-84
2021/04/11 01:53:39;;;;;;;15.35;8.98;;;;;;;6.40;48.67;95313.28;2975163;39;20109;-85
2021/04/11 01:55:41;;;;;;;19.05;10.32;;;;;;;6.38;49.16;95316.00;2979711;40;20080;-83
2021/04/11 01:57:43;;;;;;;16.42;9.20;;;;;;;6.33;49.41;95311.16;2978837;39;20046;-84
2021/04/11 01:59:44;;;;;;;19.73;10.50;;;;;;;6.31;49.38;95317.44;2978705;39;20056;-84
2021/04/11 02:01:49;;;;;;;17.30;9.10;;;;;;;6.34;48.64;95320.59;2979093;39;20094;-86
2021/04/11 02:03:55;;;;;;;14.45;8.82;;;;;;;6.29;48.95;95325.34;2977792;40;20097;-83
2021/04/11 02:06:03;;;;;;;17.08;9.98;;;;;;;6.20;49.68;95320.03;2974499;40;20310;-84
2021/04/11 02:08:06;;;;;;;17.75;9.23;;;;;;;6.18;49.49;95321.94;2976936;40;20029;-83
2021/04/11 02:10:09;;;;;;;16.25;8.40;;;;;;;6.17;49.76;95318.47;2976421;39;20120;-84
2021/04/11 02:12:11;;;;;;;17.45;8.77;;;;;;;6.18;49.76;95314.13;2982140;39;20032;-84
2021/04/11 02:14:13;;;;;;;15.40;8.85;;;;;;;6.07;49.62;95313.16;2973991;40;20060;-84
2021/04/11 02:16:16;;;;;;;14.50;8.70;;;;;;;5.91;49.43;95310.84;2981054;39;20059;-83
2021/04/11 02:18:18;;;;;;;13.38;8.10;;;;;;;5.37;50.82;95315.78;2973496;40;20044;-85
2021/04/11 02:20:21;;;;;;;16.77;8.38;;;;;;;4.93;52.39;95305.88;2979168;39;20052;-84
2021/04/11 02:22:26;;;;;;;18.13;8.05;;;;;;;4.67;52.79;95312.13;2974133;39;20327;-82
2021/04/11 02:24:29;;;;;;;15.27;8.85;;;;;;;4.68;53.65;95305.97;2978264;40;20417;-83
2021/04/11 02:26:30;;;;;;;14.35;8.02;;;;;;;4.70;52.74;95302.31;2977617;40;20029;-83
2021/04/11 02:28:32;;;;;;;18.08;8.05;;;;;;;4.75;52.59;95302.00;2977429;39;20024;-84
2021/04/11 02:30:33;;;;;;;13.65;6.97;;;;;;;4.73;53.19;95303.88;2968911;40;20084;-84
2021/04/11 02:32:35;;;;;;;17.70;8.57;;;;;;;4.74;53.21;95300.34;2968554;40;20060;-84
2021/04/11 02:34:36;;;;;;;18.90;8.18;;;;;;;4.78;52.71;95300.97;2977950;39;20123;-83
2021/04/11 02:36:45;;;;;;;14.68;8.38;;;;;;;4.83;52.99;95294.50;2969836;40;20048;-85
2021/04/11 02:38:48;;;;;;;16.23;7.95;;;;;;;4.73;52.03;95303.88;2975796;40;20076;-83
2021/04/11 02:40:52;;;;;;;17.08;7.68;;;;;;;4.53;53.12;95307.06;2982245;39;20040;-86
2021/04/11 02:42:57;;;;;;;14.48;8.13;;;;;;;4.44;53.82;95306.75;2970267;39;20052;-84
2021/04/11 02:45:13;;;;;;;19.63;8.45;;;;;;;4.34;54.02;95305.72;2973630;40;20091;-83
2021/04/11 02:47:15;;;;;;;14.65;8.60;;;;;;;4.48;53.42;95303.00;2983313;39;20059;-82
2021/04/11 02:49:19;;;;;;;15.38;7.35;;;;;;;4.67;52.95;95299.13;2978966;40;20048;-82
2021/04/11 02:51:25;;;;;;;14.90;7.65;;;;;;;4.81;52.81;95301.56;2982388;39;20122;-84
2021/04/11 02:53:27;;;;;;;17.33;9.18;;;;;;;4.84;53.03;95305.69;2976835;39;20100;-71
2021/04/11 02:55:34;;;;;;;13.55;8.40;;;;;;;4.93;52.85;95305.06;2979924;39;20107;-71
2021/04/11 02:57:35;;;;;;;14.02;8.30;;;;;;;5.01;52.18;95299.31;2981137;39;20079;-70
2021/04/11 02:59:38;;;;;;;16.30;8.65;;;;;;;5.07;52.24;95297.09;2981454;39;20063;-71
2021/04/11 03:01:43;;;;;;;21.02;10.05;;;;;;;5.16;51.94;95306.00;2988225;39;20039;-72
2021/04/11 03:03:46;;;;;;;17.80;8.57;;;;;;;5.24;51.56;95300.25;2973952;39;20084;-71
2021/04/11 03:05:48;;;;;;;21.45;9.82;;;;;;;5.26;51.78;95301.78;2968577;39;20067;-70
2021/04/11 03:08:00;;;;;;;16.40;8.43;;;;;;;5.37;51.57;95307.97;2982601;39;20054;-72
2021/04/11 03:10:13;;;;;;;18.50;8.93;;;;;;;5.48;51.24;95302.81;2989731;39;20428;-71
2021/04/11 03:12:16;;;;;;;14.38;8.32;;;;;;;5.52;51.28;95305.06;2982279;39;20374;-71
2021/04/11 03:14:21;;;;;;;15.27;8.43;;;;;;;5.39;51.30;95309.53;2974134;40;20083;-71
2021/04/11 03:16:22;;;;;;;17.95;8.25;;;;;;;5.37;51.43;95301.00;2982332;39;20056;-71
2021/04/11 03:18:24;;;;;;;16.45;9.27;;;;;;;5.39;51.83;95306.09;2977418;39;20052;-70
2021/04/11 03:20:27;;;;;;;18.45;8.48;;;;;;;5.43;52.31;95305.75;2981258;39;20055;-70
2021/04/11 03:22:37;;;;;;;15.57;8.75;;;;;;;5.54;51.32;95302.38;2990175;39;20097;-70
2021/04/11 03:24:38;;;;;;;16.10;8.65;;;;;;;5.53;51.31;95305.91;2973048;39;20056;-71
2021/04/11 03:26:47;;;;;;;17.27;8.32;;;;;;;5.56;51.16;95312.66;2978025;39;20141;-71
2021/04/11 03:28:53;;;;;;;14.85;8.15;;;;;;;5.55;51.25;95309.25;2981189;39;20051;-70
2021/04/11 03:31:04;;;;;;;19.42;9.90;;;;;;;5.62;51.78;95313.03;2982086;39;20043;-84
2021/04/11 03:33:11;;;;;;;18.10;9.73;;;;;;;5.61;51.43;95315.72;2979755;39;20164;-83
2021/04/11 03:35:16;;;;;;;18.48;9.32;;;;;;;5.59;51.63;95320.22;2985421;39;20055;-86
2021/04/11 03:37:18;;;;;;;32.40;17.08;;;;;;;5.55;51.78;95309.25;2985311;39;20055;-83
2021/04/11 03:39:20;;;;;;;27.35;13.27;;;;;;;5.52;51.45;95318.06;2984850;39;20050;-83
2021/04/11 03:41:21;;;;;;;21.52;12.13;;;;;;;5.51;51.96;95316.41;2983225;39;20377;-83
2021/04/11 03:43:26;;;;;;;20.17;9.45;;;;;;;5.45;51.89;95313.44;2984544;39;20438;-83
2021/04/11 03:45:31;;;;;;;14.95;8.63;;;;;;;5.38;51.83;95314.81;2985105;39;20144;-83
2021/04/11 03:47:59;;;;;;;17.05;8.45;;;;;;;5.29;52.09;95321.50;2993205;39;20407;-85
2021/04/11 03:50:08;;;;;;;16.95;8.38;;;;;;;5.26;51.98;95321.75;2991085;39;20051;-83
2021/04/11 03:52:15;;;;;;;14.20;7.68;;;;;;;5.14;51.90;95323.44;2986568;39;20043;-83
2021/04/11 03:54:21;;;;;;;15.90;8.48;;;;;;;4.88;52.81;95330.50;2986485;39;20467;-81
2021/04/11 03:56:27;;;;;;;15.57;8.27;;;;;;;4.81;53.56;95335.31;2984066;39;20063;-83
2021/04/11 03:58:32;;;;;;;12.00;7.50;;;;;;;4.54;53.43;95342.44;2979256;40;20063;-85
2021/04/11 04:00:46;;;;;;;13.18;7.28;;;;;;;4.50;53.67;95347.84;2998257;39;20035;-83
2021/04/11 04:02:47;;;;;;;;;;;;;;;4.62;53.95;95353.13;2994050;39;20059;-84
2021/04/11 04:04:49;;;;;;;15.27;8.32;;;;;;;4.74;53.42;95352.25;2988516;39;19935;-86
2021/04/11 04:07:00;;;;;;;11.93;7.68;;;;;;;4.91;53.14;95358.88;2986783;39;20078;-84
2021/04/11 04:09:05;;;;;;;15.82;7.85;;;;;;;5.07;53.01;95363.78;2989571;39;20392;-85
2021/04/11 04:11:32;;;;;;;13.48;8.07;;;;;;;5.14;52.03;95367.59;2986892;39;20479;-83
2021/04/11 04:13:40;;;;;;;11.88;7.13;;;;;;;5.22;51.61;95364.47;2990372;39;20061;-83
2021/04/11 04:15:50;;;;;;;12.30;6.85;;;;;;;5.25;52.01;95365.09;2980675;39;20066;-84
2021/04/11 04:18:04;;;;;;;8.27;5.80;;;;;;;5.35;50.98;95370.44;2997041;39;20073;-85
2021/04/11 04:20:15;;;;;;;12.60;6.85;;;;;;;5.42;51.15;95368.22;2988032;39;20310;-71
2021/04/11 04:22:55;;;;;;;11.98;6.55;;;;;;;5.49;51.17;95372.06;2987210;39;20284;-70
2021/04/11 04:25:07;;;;;;;14.60;8.15;;;;;;;5.57;50.66;95366.28;2988659;39;20043;-71
2021/04/11 04:27:22;;;;;;;14.00;6.60;;;;;;;5.59;50.96;95380.81;2976678;39;20144;-71
2021/04/11 04:29:33;;;;;;;12.63;6.88;;;;;;;5.66;50.25;95376.03;2983322;39;20079;-71
2021/04/11 04:31:39;;;;;;;17.00;7.72;;;;;;;5.66;50.18;95378.63;2989304;39;20075;-71
2021/04/11 04:33:52;;;;;;;15.20;5.93;;;;;;;5.69;50.61;95381.00;2980296;39;20333;-71
2021/04/11 04:36:02;;;;;;;12.63;7.03;;;;;;;5.71;51.04;95369.53;2992275;39;20087;-72
2021/04/11 04:38:12;;;;;;;13.35;7.03;;;;;;;5.64;50.46;95380.50;2983366;39;20044;-70
2021/04/11 04:40:26;;;;;;;15.48;7.78;;;;;;;5.60;50.14;95386.88;2987796;39;20050;-71
2021/04/11 04:42:39;;;;;;;13.70;7.82;;;;;;;5.48;50.83;95386.78;2981767;39;20395;-71
2021/04/11 04:44:52;;;;;;;12.25;6.85;;;;;;;5.24;50.94;95380.78;2975039;39;20048;-70
2021/04/11 04:47:24;;;;;;;12.43;7.15;;;;;;;5.08;51.65;95381.06;2996265;39;20047;-82
2021/04/11 04:49:42;;;;;;;17.52;7.60;;;;;;;5.08;51.34;95386.25;2986729;39;20072;-84
2021/04/11 04:52:26;;;;;;;12.43;7.55;;;;;;;5.13;51.95;95381.53;2999943;39;20070;-84
2021/04/11 04:54:45;;;;;;;11.38;7.03;;;;;;;5.14;51.27;95388.38;2988707;39;20075;-83
2021/04/11 04:56:57;;;;;;;16.10;8.77;;;;;;;5.30;51.46;95381.16;2993554;39;20150;-84
2021/04/11 04:59:04;;;;;;;33.15;14.32;;;;;;;5.46;51.94;95380.91;2989714;39;20044;-84
2021/04/11 05:01:15;;;;;;;14.40;7.93;;;;;;;5.64;49.95;95386.53;2989081;39;20053;-83
2021/04/11 05:03:21;;;;;;;19.20;9.98;;;;;;;5.78;49.59;95393.31;2995477;39;20055;-85
2021/04/11 05:05:24;;;;;;;19.15;10.32;;;;;;;5.82;49.00;95391.31;2988349;39;20376;-85
2021/04/11 05:07:28;;;;;;;14.43;8.57;;;;;;;5.85;49.12;95394.53;2982544;39;20054;-83
2021/04/11 05:09:32;;;;;;;;;;;;;;;5.89;49.48;95400.31;2984514;39;20083;-84
2021/04/11 05:11:46;;;;;;;13.73;8.27;;;;;;;5.98;49.31;95406.63;2997646;39;19934;-85
2021/04/11 05:14:09;;;;;;;14.93;7.38;;;;;;;5.81;49.62;95403.50;2987779;39;20076;-85
2021/04/11 05:16:18;;;;;;;13.93;8.25;;;;;;;5.79;48.82;95407.16;2979281;39;20063;-86
2021/04/11 05:18:28;;;;;;;17.02;9.25;;;;;;;5.80;49.21;95412.22;2990595;39;20032;-83
2021/04/11 05:20:32;;;;;;;13.80;8.75;;;;;;;5.73;50.07;95408.44;2990025;39;20555;-84
2021/04/11 05:22:42;;;;;;;21.85;10.38;;;;;;;5.91;48.81;95403.63;2988351;39;20035;-83
2021/04/11 05:24:46;;;;;;;18.50;8.80;;;;;;;6.10;48.35;95400.53;2987962;39;20091;-84
2021/04/11 05:27:09;;;;;;;;;;;;;;;6.26;48.44;95400.19;2987352;39;20063;-86
2021/04/11 05:29:28;;;;;;;16.77;9.18;;;;;;;6.27;48.22;95396.66;2986817;39;20020;-86
2021/04/11 05:31:37;;;;;;;16.63;9.50;;;;;;;6.33;48.08;95393.63;2978792;40;20060;-86
2021/04/11 05:33:39;;;;;;;18.23;9.68;;;;;;;6.46;47.36;95402.13;2972141;39;20036;-83
2021/04/11 05:35:40;;;;;;;19.15;10.25;;;;;;;6.42;47.84;95403.31;2987848;39;20135;-85
2021/04/11 05:38:08;;;;;;;18.73;9.40;;;;;;;6.57;46.88;95399.53;2982155;39;20032;-87
2021/04/11 05:40:23;;;;;;;16.30;9.10;;;;;;;6.71;46.72;95408.06;2983344;39;20071;-86
2021/04/11 05:42:28;;;;;;;13.90;8.95;;;;;;;6.71;46.71;95402.84;2983457;39;20067;-84
2021/04/11 05:44:36;;;;;;;14.55;8.05;;;;;;;6.41;46.49;95408.63;2987604;39;20111;-86
2021/04/11 05:46:58;;;;;;;12.95;8.65;;;;;;;6.48;47.16;95402.84;2979919;39;20112;-85
2021/04/11 05:49:05;;;;;;;14.20;8.35;;;;;;;6.33;47.41;95397.03;2988543;39;20035;-84
2021/04/11 05:51:11;;;;;;;15.73;8.50;;;;;;;6.22;47.82;95401.41;2988643;39;20405;-84
2021/04/11 05:53:25;;;;;;;13.90;8.57;;;;;;;6.36;47.84;95401.19;2980264;40;20064;-86
2021/04/11 05:55:30;;;;;;;15.68;8.55;;;;;;;5.92;48.85;95398.31;2978356;39;20039;-71
2021/04/11 05:57:35;;;;;;;21.45;10.65;;;;;;;5.85;48.96;95397.13;2979155;39;20048;-71
2021/04/11 05:59:48;;;;;;;22.45;9.93;;;;;;;5.81;49.54;95397.44;2982931;39;20052;-72
2021/04/11 06:01:54;;;;;;;19.65;12.73;;;;;;;5.72;50.16;95402.41;2985433;39;20372;-70
2021/04/11 06:04:03;;;;;;;23.73;12.75;;;;;;;5.56;50.63;95398.44;2982770;39;20078;-71
2021/04/11 06:06:37;;;;;;;21.55;11.88;;;;;;;5.69;51.15;95401.78;2992358;39;20066;-71
2021/04/11 06:08:44;;;;;;;21.33;12.18;;;;;;;5.93;50.49;95391.34;2970129;39;20420;-71
2021/04/11 06:11:16;;;;;;;23.13;13.43;;;;;;;6.01;50.78;95396.03;2985763;39;20111;-73
2021/04/11 06:13:28;;;;;;;19.13;11.68;;;;;;;5.92;50.37;95390.53;2960135;39;20321;-70
2021/04/11 06:15:39;;;;;;;22.35;13.13;;;;;;;5.99;50.81;95392.72;2992669;39;20054;-71
2021/04/11 06:17:42;;;;;;;23.50;12.52;;;;;;;6.21;49.53;95391.94;2992635;39;20086;-72
2021/04/11 06:19:45;;;;;;;19.48;12.02;;;;;;;6.45;48.94;95397.88;2982413;39;20051;-71
2021/04/11 06:21:55;;;;;;;19.63;11.27;;;;;;;6.64;48.51;95393.88;2974795;39;20063;-71
2021/04/11 06:24:03;;;;;;;21.90;11.90;;;;;;;6.99;48.08;95391.16;2982190;39;20084;-73
2021/04/11 06:26:09;;;;;;;25.98;11.88;;;;;;;7.31;47.39;95392.97;2982704;39;20418;-71
2021/04/11 06:28:19;;;;;;;22.77;13.52;;;;;;;7.49;46.92;95388.09;2991736;39;20096;-72
2021/04/11 06:30:27;;;;;;;25.65;12.40;;;;;;;7.78;46.65;95381.31;2980736;39;20060;-71
2021/04/11 06:32:34;;;;;;;28.33;14.38;;;;;;;7.94;45.76;95380.91;2974988;39;20455;-84
2021/04/11 06:34:45;;;;;;;25.80;13.13;;;;;;;7.84;45.53;95377.41;2989965;39;20044;-85
2021/04/11 06:36:49;;;;;;;21.55;13.00;;;;;;;7.82;45.46;95386.31;2991515;39;20039;-85
2021/04/11 06:38:56;;;;;;;23.00;13.27;;;;;;;7.76;45.71;95380.63;2997837;39;20059;-87
2021/04/11 06:41:00;;;;;;;18.83;11.70;;;;;;;8.00;44.96;95379.56;2972215;39;20344;-87
2021/04/11 06:43:26;;;;;;;22.33;12.35;;;;;;;8.20;44.26;95380.53;2988324;39;20059;-86
2021/04/11 06:45:34;;;;;;;18.08;11.00;;;;;;;8.00;44.39;95390.00;2991018;39;20071;-87
2021/04/11 06:48:04;;;;;;;19.83;12.35;;;;;;;8.03;44.27;95394.16;2983293;39;20054;-86
2021/04/11 06:50:18;;;;;;;19.40;10.50;;;;;;;8.05;44.12;95393.06;2978847;39;20040;-83
2021/04/11 06:52:23;;;;;;;17.77;11.18;;;;;;;7.87;44.51;95395.41;2988288;39;20031;-86
2021/04/11 06:54:36;;;;;;;18.85;10.85;;;;;;;7.94;44.99;95398.34;2992466;39;20060;-85
2021/04/11 06:56:39;;;;;;;17.92;11.40;;;;;;;8.12;44.73;95398.59;3001048;39;20050;-85
2021/04/11 06:58:50;;;;;;;18.60;11.43;;;;;;;8.36;44.07;95395.75;2988136;39;20076;-84
2021/04/11 07:01:08;;;;;;;18.17;10.57;;;;;;;8.05;45.38;95395.69;2996042;39;20058;-88
2021/04/11 07:03:32;;;;;;;17.73;10.65;;;;;;;8.06;44.56;95391.28;2993636;39;20098;-85
2021/04/11 07:05:47;;;;;;;19.87;9.43;;;;;;;8.29;43.89;95394.59;2980101;39;20056;-85
2021/04/11 07:08:10;;;;;;;19.02;10.27;;;;;;;8.22;44.12;95399.50;2979770;39;20069;-85
2021/04/11 07:10:21;;;;;;;14.75;9.68;;;;;;;8.34;43.66;95397.66;2995450;39;20036;-86
2021/04/11 07:12:26;;;;;;;14.38;9.55;;;;;;;8.58;43.22;95403.47;2986158;39;20052;-87
2021/04/11 07:14:39;;;;;;;18.67;10.20;;;;;;;8.83;42.46;95398.75;2985856;39;20185;-86
2021/04/11 07:16:54;;;;;;;19.77;11.07;;;;;;;8.82;42.63;95404.97;2985726;39;20051;-85
2021/04/11 07:19:30;;;;;;;19.38;10.52;;;;;;;8.83;42.90;95398.75;2995347;39;20047;-84
2021/04/11 07:21:54;;;;;;;17.33;10.32;;;;;;;8.94;42.31;95400.44;2987465;39;20044;-85
2021/04/11 07:24:22;;;;;;;16.00;10.70;;;;;;;9.11;42.40;95396.38;2987119;39;20051;-85
2021/04/11 07:26:41;;;;;;;17.27;10.25;;;;;;;9.30;42.26;95393.81;2996737;39;20139;-84
2021/04/11 07:28:56;;;;;;;17.02;9.35;;;;;;;9.59;42.39;95391.28;2979398;40;20064;-86
2021/04/11 07:31:12;;;;;;;14.88;9.57;;;;;;;9.70;41.46;95386.84;2987266;39;20047;-85
2021/04/11 07:33:19;;;;;;;14.38;8.60;;;;;;;9.60;40.37;95386.88;2986719;39;20063;-84
2021/04/11 07:35:39;;;;;;;16.65;8.07;;;;;;;9.35;40.38;95394.25;2996690;39;20541;-86
2021/04/11 07:38:19;;;;;;;13.98;8.23;;;;;;;9.23;41.26;95395.34;2974898;40;20091;-85
2021/04/11 07:40:39;;;;;;;15.20;9.10;;;;;;;9.53;40.66;95385.72;2991566;39;20059;-86
2021/04/11 07:43:17;;;;;;;13.80;8.60;;;;;;;9.61;40.05;95380.66;2997531;39;20111;-89
2021/04/11 07:45:40;;;;;;;15.82;8.48;;;;;;;9.73;40.05;95382.19;2989047;39;20020;-85
2021/04/11 07:47:56;;;;;;;11.25;7.82;;;;;;;10.04;39.74;95379.41;2996418;39;20138;-84
2021/04/11 07:50:15;;;;;;;13.32;7.50;;;;;;;10.18;38.64;95376.38;3005098;39;20026;-84
2021/04/11 07:52:51;;;;;;;12.18;7.45;;;;;;;10.27;38.51;95379.13;2992717;39;20077;-84
2021/04/11 07:55:11;;;;;;;15.00;7.30;;;;;;;9.76;38.72;95379.28;3005225;39;20462;-85
2021/04/11 07:57:49;;;;;;;14.57;6.72;;;;;;;9.47;38.90;95383.69;2998321;39;20047;-87
2021/04/11 08:00:31;;;;;;;15.05;6.93;;;;;;;9.63;39.52;95376.94;2993410;39;20051;-85
2021/04/11 08:03:04;;;;;;;11.48;7.15;;;;;;;9.87;39.13;95374.88;2981834;39;20048;-88
2021/04/11 08:05:30;;;;;;;13.15;7.43;;;;;;;9.97;38.97;95370.47;2968390;39;20083;-84
2021/04/11 08:07:57;;;;;;;13.68;8.05;;;;;;;9.89;39.43;95380.81;2987312;39;20597;-85
2021/04/11 08:10:37;;;;;;;17.75;7.85;;;;;;;9.76;38.63;95383.69;2987650;39;20055;-87
2021/04/11 08:12:38;;;;;;;14.48;7.07;;;;;;;9.59;39.86;95380.81;2978959;39;20055;-85
2021/04/11 08:14:47;;;;;;;14.20;7.20;;;;;;;9.44;39.35;95376.91;2994653;39;20072;-84
2021/04/11 08:17:04;;;;;;;13.68;8.38;;;;;;;9.47;39.37;95373.22;2983887;39;20050;-85
2021/04/11 08:19:18;;;;;;;14.07;7.28;;;;;;;9.71;39.28;95378.88;3001816;39;20435;-85
2021/04/11 08:21:19;;;;;;;14.63;7.18;;;;;;;10.09;38.66;95377.22;2996414;39;20070;-86
2021/04/11 08:23:58;;;;;;;11.77;7.07;;;;;;;10.39;38.47;95378.03;2998203;39;20433;-72
2021/04/11 08:26:30;;;;;;;17.75;7.25;;;;;;;10.51;38.53;95381.31;2992741;39;20047;-72
2021/04/11 08:28:50;;;;;;;12.43;7.70;;;;;;;10.71;38.06;95379.47;2979093;39;20057;-73
2021/04/11 08:31:07;;;;;;;13.95;7.30;;;;;;;10.94;37.40;95378.13;2993046;39;20055;-72
2021/04/11 08:33:25;;;;;;;15.52;7.85;;;;;;;11.08;37.67;95368.97;2982750;39;20058;-73
2021/04/11 08:35:32;;;;;;;11.52;7.35;;;;;;;11.18;37.24;95369.72;2977597;39;20135;-71
2021/04/11 08:37:52;;;;;;;15.75;6.88;;;;;;;11.23;36.84;95375.38;2992747;39;20050;-72
2021/04/11 08:40:07;;;;;;;12.82;7.05;;;;;;;11.20;36.66;95367.78;2992300;39;20054;-72
2021/04/11 08:42:23;;;;;;;14.73;7.97;;;;;;;11.16;36.90;95360.38;2987097;39;20051;-74
2021/04/11 08:44:37;;;;;;;10.73;7.15;;;;;;;10.89;37.28;95358.59;2982623;39;20451;-73
2021/04/11 08:47:06;;;;;;;10.97;7.27;;;;;;;10.86;37.38;95357.91;2987329;39;20067;-71
2021/04/11 08:49:15;;;;;;;16.33;7.60;;;;;;;11.19;37.30;95360.09;2977966;39;20396;-73
2021/04/11 08:51:55;;;;;;;14.20;7.70;;;;;;;10.96;37.03;95357.84;2992338;39;20075;-72
2021/04/11 08:54:04;;;;;;;12.40;7.78;;;;;;;10.77;37.48;95360.53;2953264;39;20067;-72
2021/04/11 08:56:08;;;;;;;12.98;7.18;;;;;;;10.77;38.28;95352.69;2995826;39;20074;-70
2021/04/11 08:58:50;;;;;;;11.77;7.57;;;;;;;11.35;37.32;95356.81;2983258;39;20055;-72
2021/04/11 09:01:03;;;;;;;15.35;7.47;;;;;;;11.86;36.65;95340.41;2996144;39;20314;-71
2021/04/11 09:03:21;;;;;;;12.50;7.10;;;;;;;12.22;35.82;95340.41;2991584;39;20420;-72
2021/04/11 09:05:40;;;;;;;12.27;7.93;;;;;;;12.54;35.50;95343.38;2989170;39;20058;-71
2021/04/11 09:08:19;;;;;;;9.75;6.97;;;;;;;12.84;34.67;95339.44;2992806;39;20099;-71
2021/04/11 09:10:45;;;;;;;12.38;7.93;;;;;;;12.93;34.57;95338.50;2985876;39;20471;-72
2021/04/11 09:13:05;;;;;;;12.80;7.70;;;;;;;13.07;33.63;95339.72;2983050;39;20054;-72
2021/04/11 09:15:09;;;;;;;15.00;7.35;;;;;;;13.13;32.70;95335.63;2989994;39;20051;-74
2021/04/11 09:17:40;;;;;;;10.27;7.63;;;;;;;13.23;33.01;95336.34;2995617;39;20108;-72
2021/04/11 09:20:03;;;;;;;13.82;7.13;;;;;;;13.45;32.72;95330.50;2946004;40;20053;-72
2021/04/11 09:22:26;;;;;;;9.73;6.65;;;;;;;13.60;32.10;95329.88;2979040;39;20114;-74
2021/04/11 09:24:55;;;;;;;12.45;6.93;;;;;;;13.77;31.90;95331.53;2986706;39;20140;-72
2021/04/11 09:27:33;;;;;;;15.68;7.63;;;;;;;13.92;31.81;95329.06;2992414;39;20045;-72
2021/04/11 09:29:35;;;;;;;13.93;6.82;;;;;;;14.01;31.99;95314.09;2992848;39;20384;-73
2021/04/11 09:31:48;;;;;;;10.35;6.80;;;;;;;14.19;31.25;95324.44;2983361;39;20051;-72
2021/04/11 09:34:07;;;;;;;14.00;6.60;;;;;;;13.81;31.34;95316.22;2982756;39;20063;-73
2021/04/11 09:36:12;;;;;;;15.73;6.50;;;;;;;13.63;31.22;95321.63;2993042;39;20075;-74
2021/04/11 09:38:26;;;;;;;11.07;6.35;;;;;;;13.69;30.78;95313.09;2992654;39;20060;-73
2021/04/11 09:40:45;;;;;;;7.95;5.32;;;;;;;13.49;29.80;95316.03;2991541;39;20091;-74
2021/04/11 09:42:56;;;;;;;8.25;4.40;;;;;;;13.05;28.54;95307.47;2990960;39;20054;-72
2021/04/11 09:45:11;;;;;;;10.90;5.07;;;;;;;12.91;30.19;95307.09;2974557;39;20084;-72
2021/04/11 09:47:12;;;;;;;11.70;4.68;;;;;;;13.12;29.75;95300.63;2986135;39;20055;-72
2021/04/11 09:49:35;;;;;;;8.60;4.75;;;;;;;13.58;29.43;95302.88;2989183;39;20058;-71
2021/04/11 09:51:45;;;;;;;7.72;4.35;;;;;;;13.72;28.87;95304.84;2989917;39;20065;-71
2021/04/11 09:54:05;;;;;;;11.85;4.68;;;;;;;13.72;29.07;95302.22;2987186;39;20504;-74
2021/04/11 09:56:15;;;;;;;8.32;4.50;;;;;;;13.54;29.20;95305.00;2988759;39;20075;-72
2021/04/11 09:58:26;;;;;;;7.85;3.95;;;;;;;13.57;28.00;95306.47;2983109;39;20039;-71
2021/04/11 10:00:37;;;;;;;9.25;3.58;;;;;;;13.82;28.28;95304.69;2996174;39;20039;-71
2021/04/11 10:02:47;;;;;;;6.55;3.70;;;;;;;13.80;28.10;95296.16;2986003;39;20051;-86
2021/04/11 10:05:01;;;;;;;7.25;4.13;;;;;;;13.61;28.04;95292.00;3000894;39;20050;-86
2021/04/11 10:07:05;;;;;;;;;;;;;;;13.69;27.04;95290.22;2997560;39;20065;-86
2021/04/11 10:09:37;;;;;;;6.03;3.30;;;;;;;13.71;27.26;95290.88;2986948;39;19965;-85
2021/04/11 10:12:17;;;;;;;5.85;3.15;;;;;;;13.84;27.54;95295.66;2996739;39;20123;-87
2021/04/11 10:14:47;;;;;;;6.80;3.65;;;;;;;14.07;27.61;95295.00;2989091;39;20055;-89
2021/04/11 10:17:14;;;;;;;6.32;3.45;;;;;;;14.34;28.18;95297.25;2987469;39;20099;-86